Time;durP1;ratioP1;P1;durP2;ratioP2;P2;SDS_P1;SDS_P2;PMS_P1;PMS_P2;Temp;Humidity;BMP_temperature;BMP_pressure;BME280_temperature;BME280_humidity;BME280_pressure;Samples;Min_cycle;Max_cycle;Signal;HPM_P1;HPM_P2
2023/05/01 00:01:17;;;;;;;11.57;7.00;;;;;;;11.97;88.88;95135.75;5022372;28;20233;-80
2023/05/01 00:03:43;;;;;;;11.47;6.97;;;;;;;12.08;87.02;95138.56;5025213;28;20230;-80
2023/05/01 00:06:09;;;;;;;11.37;6.70;;;;;;;11.82;89.65;95138.59;5038035;28;20229;-80
2023/05/01 00:08:35;;;;;;;11.83;6.67;;;;;;;11.71;89.78;95141.00;5025140;28;20810;-80
2023/05/01 00:11:03;;;;;;;12.60;7.10;;;;;;;11.61;90.44;95141.38;5032393;28;20229;-79
2023/05/01 00:13:29;;;;;;;15.13;6.90;;;;;;;11.73;89.70;95138.97;4991809;28;20564;-80
2023/05/01 00:15:55;;;;;;;11.90;6.63;;;;;;;11.84;88.60;95149.72;5025493;28;20329;-80
2023/05/01 00:18:20;;;;;;;12.40;6.80;;;;;;;11.90;88.25;95143.63;5023924;28;20238;-78
2023/05/01 00:20:46;;;;;;;11.67;6.83;;;;;;;11.76;89.33;95143.84;4998363;28;20248;-80
2023/05/01 00:23:12;;;;;;;11.17;6.97;;;;;;;11.60;89.41;95144.19;5026348;28;20230;-80
2023/05/01 00:25:38;;;;;;;12.57;6.80;;;;;;;11.34;90.72;95143.13;5008440;28;20907;-80
2023/05/01 00:28:04;;;;;;;11.60;6.60;;;;;;;11.34;90.17;95143.13;5022838;28;20231;-80
2023/05/01 00:30:31;;;;;;;10.20;6.70;;;;;;;11.40;89.30;95149.41;5004903;28;21007;-80
2023/05/01 00:32:58;;;;;;;9.30;6.90;;;;;;;11.45;90.01;95154.88;4995533;28;20262;-80
2023/05/01 00:35:23;;;;;;;10.90;6.93;;;;;;;11.40;89.99;95157.25;5010717;28;20279;-80
2023/05/01 00:37:49;;;;;;;12.33;7.70;;;;;;;11.34;91.12;95160.69;5031057;28;20234;-79
2023/05/01 00:40:15;;;;;;;14.63;8.10;;;;;;;11.45;90.38;95160.09;5035665;28;20233;-80
2023/05/01 00:42:40;;;;;;;15.73;8.17;;;;;;;11.12;92.56;95167.88;5016238;28;20242;-80
2023/05/01 00:45:06;;;;;;;15.20;8.63;;;;;;;11.41;91.65;95161.50;4996191;28;20730;-80
2023/05/01 00:47:34;;;;;;;16.13;9.17;;;;;;;11.39;92.14;95168.78;4995756;28;20257;-80
2023/05/01 00:49:59;;;;;;;19.20;9.37;;;;;;;11.41;92.06;95164.13;5035969;28;20254;-80
2023/05/01 00:52:25;;;;;;;15.43;10.00;;;;;;;11.28;93.58;95171.94;5019701;28;20219;-80
2023/05/01 00:54:51;;;;;;;17.33;9.90;;;;;;;11.39;93.37;95174.00;5015037;28;20253;-80
2023/05/01 00:57:20;;;;;;;18.20;9.87;;;;;;;11.42;93.44;95168.34;5012634;28;20234;-80
2023/05/01 00:59:45;;;;;;;15.40;9.73;;;;;;;11.37;93.07;95173.38;5017710;28;20811;-80
2023/05/01 01:02:14;;;;;;;15.63;9.93;;;;;;;11.33;93.47;95164.31;5011492;28;20229;-81
2023/05/01 01:04:40;;;;;;;16.40;9.80;;;;;;;11.28;93.50;95178.00;5027068;28;20226;-80
2023/05/01 01:07:20;;;;;;;16.57;10.00;;;;;;;11.02;95.54;95169.25;4993490;28;20227;-80
2023/05/01 01:10:12;;;;;;;16.07;9.70;;;;;;;10.98;95.99;95174.09;5031608;28;20230;-80
2023/05/01 01:12:46;;;;;;;17.17;10.47;;;;;;;10.86;96.54;95166.97;5040905;28;20269;-80
2023/05/01 01:15:18;;;;;;;18.40;10.17;;;;;;;10.94;95.99;95170.22;5030785;28;20245;-80
2023/05/01 01:17:55;;;;;;;19.40;10.00;;;;;;;10.92;95.54;95177.47;5021340;28;20292;-80
2023/05/01 01:20:27;;;;;;;16.90;10.07;;;;;;;10.68;96.99;95180.56;5031932;28;20839;-78
2023/05/01 01:23:00;;;;;;;18.73;10.63;;;;;;;10.59;98.49;95173.88;5027741;28;20237;-79
2023/05/01 01:25:44;;;;;;;17.73;10.30;;;;;;;10.75;98.25;95187.44;5024702;28;20229;-79
2023/05/01 01:28:29;;;;;;;18.43;10.60;;;;;;;10.59;99.00;95187.78;5033961;28;20239;-79
2023/05/01 01:31:00;;;;;;;17.77;10.53;;;;;;;10.67;98.32;95192.06;5012419;28;20245;-79
2023/05/01 01:34:08;;;;;;;18.43;10.27;;;;;;;11.05;96.59;95195.06;5032845;28;20230;-79
2023/05/01 01:36:47;;;;;;;18.20;10.30;;;;;;;10.86;97.33;95193.97;4990711;28;20715;-80
2023/05/01 01:39:56;;;;;;;16.20;10.40;;;;;;;10.69;98.54;95190.03;5012895;28;20215;-79
2023/05/01 01:42:28;;;;;;;18.33;10.53;;;;;;;10.61;98.51;95193.63;5009296;28;20793;-79
2023/05/01 01:44:54;;;;;;;17.90;10.63;;;;;;;10.62;98.91;95192.63;5020765;28;20223;-80
2023/05/01 01:47:21;;;;;;;18.20;10.80;;;;;;;10.53;99.00;95190.38;5018196;28;20247;-80
2023/05/01 01:49:48;;;;;;;19.40;10.87;;;;;;;10.48;98.49;95179.66;5024017;28;20294;-79
2023/05/01 01:52:14;;;;;;;20.00;11.03;;;;;;;10.54;98.75;95176.25;5029982;28;20694;-80
2023/05/01 01:54:42;;;;;;;18.37;11.00;;;;;;;10.48;98.79;95179.66;5020208;28;20230;-79
2023/05/01 01:57:08;;;;;;;18.60;10.13;;;;;;;10.51;98.76;95174.84;4998869;28;20744;-79
2023/05/01 01:59:34;;;;;;;18.97;10.93;;;;;;;10.54;99.38;95174.47;4995847;28;20222;-79
2023/05/01 02:02:02;;;;;;;18.03;10.53;;;;;;;10.68;97.84;95170.91;4999603;28;20230;-80
2023/05/01 02:04:28;;;;;;;16.37;10.07;;;;;;;10.66;97.71;95178.16;5015186;28;20242;-79
2023/05/01 02:06:57;;;;;;;20.20;10.37;;;;;;;10.64;98.01;95181.97;5016788;28;20215;-80
2023/05/01 02:09:22;;;;;;;17.43;10.07;;;;;;;10.61;97.88;95185.78;4998454;28;20264;-80
2023/05/01 02:11:48;;;;;;;20.80;9.90;;;;;;;10.37;98.53;95178.38;5041211;28;20234;-80
2023/05/01 02:14:14;;;;;;;15.07;10.03;;;;;;;10.50;97.44;95186.31;4998779;28;20218;-79
2023/05/01 02:16:39;;;;;;;18.97;10.10;;;;;;;10.41;97.68;95179.59;4995284;28;20242;-80
2023/05/01 02:19:05;;;;;;;18.97;10.37;;;;;;;10.29;98.47;95175.94;5012913;28;20230;-80
2023/05/01 02:21:32;;;;;;;17.83;10.43;;;;;;;10.28;99.19;95184.75;5004348;28;20237;-81
2023/05/01 02:23:59;;;;;;;18.10;10.53;;;;;;;10.34;98.42;95183.19;5022713;28;20235;-80
2023/05/01 02:26:25;;;;;;;20.20;10.67;;;;;;;10.02;99.54;95182.75;5026567;28;20234;-80
2023/05/01 02:28:50;;;;;;;17.43;10.70;;;;;;;10.25;99.60;95185.13;4996658;28;20253;-80
2023/05/01 02:31:16;;;;;;;16.67;10.80;;;;;;;10.27;98.75;95182.34;5005024;28;20218;-80
2023/05/01 02:33:41;;;;;;;18.07;10.90;;;;;;;10.29;99.05;95180.34;5018759;28;20231;-79
2023/05/01 02:36:07;;;;;;;18.50;10.77;;;;;;;10.24;98.98;95177.50;5014132;28;20221;-79
2023/05/01 02:38:33;;;;;;;17.77;11.10;;;;;;;10.17;99.64;95182.69;4991423;28;20235;-79
2023/05/01 02:40:58;;;;;;;19.83;11.10;;;;;;;10.08;100.00;95186.38;5014522;28;20226;-79
2023/05/01 02:43:25;;;;;;;18.40;11.30;;;;;;;10.17;100.00;95187.09;4994206;28;20219;-79
2023/05/01 02:45:50;;;;;;;18.17;11.03;;;;;;;10.23;99.33;95184.53;5001219;28;20253;-80
2023/05/01 02:48:19;;;;;;;20.93;11.43;;;;;;;10.28;98.79;95179.53;4998733;28;20286;-79
2023/05/01 02:50:45;;;;;;;18.27;10.90;;;;;;;10.34;98.96;95183.19;5008537;28;20242;-79
2023/05/01 02:53:11;;;;;;;18.93;10.23;;;;;;;10.32;98.27;95182.59;5013952;28;20215;-79
2023/05/01 02:55:36;;;;;;;19.27;10.67;;;;;;;10.05;99.72;95176.31;5016396;28;20241;-79
2023/05/01 02:58:02;;;;;;;17.77;10.63;;;;;;;10.14;100.00;95188.28;5000380;28;20230;-79
2023/05/01 03:00:28;;;;;;;19.17;10.03;;;;;;;10.11;99.66;95189.47;5019562;28;20237;-79
2023/05/01 03:02:54;;;;;;;15.07;9.23;;;;;;;10.05;99.90;95189.41;5023739;28;20261;-80
2023/05/01 03:05:19;;;;;;;19.80;9.57;;;;;;;9.72;100.00;95191.72;5022491;28;20241;-79
2023/05/01 03:07:46;;;;;;;17.17;9.53;;;;;;;9.56;100.00;95199.81;5017123;28;20237;-79
2023/05/01 03:10:12;;;;;;;15.77;9.33;;;;;;;9.57;100.00;95208.47;5033186;28;20211;-80
2023/05/01 03:12:37;;;;;;;19.33;8.93;;;;;;;9.73;100.00;95206.41;5032735;28;20285;-80
2023/05/01 03:15:03;;;;;;;13.90;8.57;;;;;;;10.09;99.90;95195.84;5012044;28;20241;-80
2023/05/01 03:17:29;;;;;;;17.13;8.77;;;;;;;9.88;100.00;95201.94;5019457;28;20237;-78
2023/05/01 03:19:54;;;;;;;16.07;8.97;;;;;;;9.80;100.00;95201.22;4994163;28;20294;-78
2023/05/01 03:22:20;;;;;;;13.30;8.30;;;;;;;9.86;99.70;95205.72;5000107;28;20241;-80
2023/05/01 03:24:46;;;;;;;14.87;8.10;;;;;;;9.86;99.29;95198.66;5020647;28;20883;-79
2023/05/01 03:27:12;;;;;;;14.10;7.53;;;;;;;9.87;99.32;95207.31;5016520;28;20230;-78
2023/05/01 03:29:37;;;;;;;15.10;7.60;;;;;;;9.70;99.77;95214.63;4999990;28;20218;-79
2023/05/01 03:32:03;;;;;;;13.73;7.23;;;;;;;9.73;99.92;95211.63;4994172;28;20231;-79
2023/05/01 03:34:29;;;;;;;11.43;7.57;;;;;;;9.70;100.00;95216.41;5034225;28;20217;-78
2023/05/01 03:36:55;;;;;;;11.73;7.20;;;;;;;9.52;100.00;95214.25;5012255;28;20602;-79
2023/05/01 03:39:21;;;;;;;10.20;7.13;;;;;;;9.67;99.89;95219.41;4989516;28;20242;-79
2023/05/01 03:41:46;;;;;;;14.67;7.23;;;;;;;9.64;100.00;95220.59;5028667;28;20262;-79
2023/05/01 03:44:12;;;;;;;13.50;7.73;;;;;;;9.66;100.00;95217.78;5015448;28;20230;-80
2023/05/01 03:46:37;;;;;;;11.47;7.27;;;;;;;9.66;100.00;95220.41;5013523;28;20238;-78
2023/05/01 03:49:02;;;;;;;11.83;7.17;;;;;;;9.90;99.00;95222.66;5035477;28;20233;-78
2023/05/01 03:51:28;;;;;;;11.33;7.50;;;;;;;9.86;98.79;95226.63;5010361;28;20240;-78
2023/05/01 03:53:57;;;;;;;13.10;7.73;;;;;;;9.90;99.46;95227.88;5039080;28;20232;-78
2023/05/01 03:56:26;;;;;;;13.00;7.87;;;;;;;9.77;100.00;95225.94;5038201;28;20268;-78
2023/05/01 03:58:51;;;;;;;12.33;7.53;;;;;;;9.72;100.00;95233.53;5010412;28;20241;-79
2023/05/01 04:01:17;;;;;;;12.63;8.13;;;;;;;9.52;100.00;95242.16;4994982;28;20424;-78
2023/05/01 04:03:43;;;;;;;15.27;7.90;;;;;;;9.78;100.00;95239.81;4993770;28;20294;-78
2023/05/01 04:06:09;;;;;;;13.67;8.07;;;;;;;10.04;98.97;95237.44;5016711;28;20264;-78
2023/05/01 04:08:34;;;;;;;12.87;7.57;;;;;;;10.22;98.77;95235.25;4992803;28;20230;-78
2023/05/01 04:11:00;;;;;;;13.47;7.83;;;;;;;10.12;98.88;95237.34;5027477;28;20236;-78
2023/05/01 04:13:26;;;;;;;20.47;8.70;;;;;;;10.31;98.45;95239.31;5020230;28;20226;-79
2023/05/01 04:15:54;;;;;;;15.17;8.90;;;;;;;10.28;98.54;95246.72;5023738;28;20238;-78
2023/05/01 04:18:19;;;;;;;14.63;8.37;;;;;;;10.37;97.93;95238.56;5036509;28;20237;-79
2023/05/01 04:20:45;;;;;;;13.73;8.30;;;;;;;10.24;99.33;95235.84;5022349;28;20229;-79
2023/05/01 04:23:11;;;;;;;14.97;7.97;;;;;;;10.39;98.52;95238.38;5038293;28;20229;-78
2023/05/01 04:25:37;;;;;;;13.07;8.37;;;;;;;10.38;98.87;95237.56;5027206;28;20241;-77
2023/05/01 04:28:03;;;;;;;13.70;7.90;;;;;;;10.55;98.04;95241.50;5027875;28;20222;-78
2023/05/01 04:30:32;;;;;;;14.90;8.50;;;;;;;10.61;98.38;95243.34;5027772;28;20237;-78
2023/05/01 04:32:57;;;;;;;15.43;8.27;;;;;;;10.61;97.93;95253.00;5037669;28;20234;-77
2023/05/01 04:35:24;;;;;;;14.80;8.57;;;;;;;10.64;97.80;95245.59;5019491;28;20237;-78
2023/05/01 04:37:50;;;;;;;15.37;8.43;;;;;;;10.77;97.78;95248.28;5016234;28;20309;-78
2023/05/01 04:40:16;;;;;;;12.40;8.83;;;;;;;10.78;97.77;95246.47;5013907;28;20246;-78
2023/05/01 04:42:41;;;;;;;15.83;9.23;;;;;;;10.89;97.20;95245.94;5033068;28;20237;-78
2023/05/01 04:45:07;;;;;;;15.87;9.33;;;;;;;11.03;96.12;95258.13;4999190;28;20237;-79
2023/05/01 04:47:33;;;;;;;17.03;9.57;;;;;;;11.06;96.13;95257.69;5019610;28;20237;-78
2023/05/01 04:49:58;;;;;;;16.60;9.57;;;;;;;11.10;95.95;95260.75;5035985;28;20218;-79
2023/05/01 04:52:24;;;;;;;17.70;9.80;;;;;;;11.29;94.67;95255.63;5013147;28;20223;-79
2023/05/01 04:54:49;;;;;;;18.13;9.50;;;;;;;11.41;93.15;95261.91;4996955;28;20231;-79
2023/05/01 04:57:18;;;;;;;19.17;10.20;;;;;;;11.46;93.59;95250.84;5021121;28;20261;-79
2023/05/01 04:59:47;;;;;;;16.97;10.10;;;;;;;11.48;93.17;95256.69;5012239;28;20227;-79
2023/05/01 05:02:12;;;;;;;14.07;9.60;;;;;;;13.03;87.75;95268.50;5012967;28;20233;-80
2023/05/01 05:04:38;;;;;;;13.27;9.13;;;;;;;15.45;76.03;95261.66;4999171;28;20231;-81
2023/05/01 05:07:08;;;;;;;13.77;8.73;;;;;;;14.99;76.35;95266.56;5011245;28;20234;-79
2023/05/01 05:09:33;;;;;;;18.20;9.17;;;;;;;15.71;73.09;95269.25;5021044;28;20218;-79
2023/05/01 05:11:59;;;;;;;13.67;8.40;;;;;;;14.58;77.26;95275.88;5020968;28;20235;-80
2023/05/01 05:14:25;;;;;;;15.00;8.43;;;;;;;15.75;73.12;95280.97;5034234;28;20656;-79
2023/05/01 05:16:50;;;;;;;11.97;8.33;;;;;;;17.26;67.86;95289.22;5017948;28;20242;-78
2023/05/01 05:19:16;;;;;;;18.17;8.50;;;;;;;17.95;65.88;95293.59;5024555;28;20222;-79
2023/05/01 05:21:41;;;;;;;12.77;8.10;;;;;;;18.49;64.17;95293.03;5028426;28;20235;-79
2023/05/01 05:24:07;;;;;;;12.30;8.10;;;;;;;18.04;62.88;95300.13;5036619;28;20228;-79
2023/05/01 05:26:32;;;;;;;13.03;8.70;;;;;;;16.75;67.82;95289.91;4999357;28;20226;-80
2023/05/01 05:28:58;;;;;;;13.63;8.57;;;;;;;15.72;71.60;95299.06;5043318;28;20225;-80
2023/05/01 05:31:24;;;;;;;14.17;8.67;;;;;;;15.86;72.65;95303.16;5019080;28;20226;-81
2023/05/01 05:33:52;;;;;;;17.00;9.53;;;;;;;15.95;72.81;95297.34;5042566;28;20614;-79
2023/05/01 05:36:18;;;;;;;14.93;8.90;;;;;;;15.98;71.75;95293.44;5023890;28;21045;-77
2023/05/01 05:38:43;;;;;;;16.43;8.93;;;;;;;15.80;73.54;95296.94;5004443;28;20233;-79
2023/05/01 05:41:12;;;;;;;19.00;9.83;;;;;;;15.39;74.13;95304.69;5031126;28;20238;-80
2023/05/01 05:43:37;;;;;;;13.53;9.07;;;;;;;15.67;73.68;95307.66;5040147;28;20234;-79
2023/05/01 05:46:03;;;;;;;15.83;8.80;;;;;;;15.75;73.02;95296.81;5022946;28;20230;-80
2023/05/01 05:48:29;;;;;;;15.80;10.30;;;;;;;15.63;74.36;95300.41;5002344;28;20754;-78
2023/05/01 05:50:55;;;;;;;16.13;9.80;;;;;;;15.67;72.63;95305.00;5024467;28;20221;-79
2023/05/01 05:53:20;;;;;;;19.10;10.10;;;;;;;16.01;72.79;95304.38;5006581;28;20270;-78
2023/05/01 05:55:46;;;;;;;13.80;8.97;;;;;;;16.09;72.01;95304.09;5009947;28;20247;-78
2023/05/01 05:58:13;;;;;;;15.17;9.37;;;;;;;16.22;72.84;95304.91;5022175;28;20616;-77
2023/05/01 06:00:40;;;;;;;14.47;8.97;;;;;;;16.36;71.16;95311.63;5013857;28;20280;-79
2023/05/01 06:03:06;;;;;;;17.33;8.90;;;;;;;16.42;70.97;95313.34;5005242;28;21062;-77
2023/05/01 06:05:36;;;;;;;16.73;9.20;;;;;;;16.42;70.70;95310.72;5010344;28;20221;-77
2023/05/01 06:08:02;;;;;;;16.03;10.33;;;;;;;15.89;73.63;95314.09;5034403;28;20231;-78
2023/05/01 06:10:28;;;;;;;15.17;9.77;;;;;;;15.68;73.58;95317.19;5033648;28;20631;-78
2023/05/01 06:12:53;;;;;;;15.10;9.60;;;;;;;15.74;74.34;95321.56;5023316;28;20231;-77
2023/05/01 06:15:20;;;;;;;14.23;9.13;;;;;;;15.94;73.35;95323.97;5033142;28;20301;-77
2023/05/01 06:17:45;;;;;;;15.33;9.47;;;;;;;16.23;72.63;95317.09;5021139;28;20294;-78
2023/05/01 06:20:12;;;;;;;14.43;8.93;;;;;;;16.41;71.36;95317.84;5008001;28;20230;-80
2023/05/01 06:22:37;;;;;;;15.20;8.70;;;;;;;16.02;72.82;95321.03;5034049;28;20226;-80
2023/05/01 06:25:03;;;;;;;15.57;8.70;;;;;;;15.82;72.76;95316.00;5022148;28;20258;-80
2023/05/01 06:27:29;;;;;;;15.50;8.67;;;;;;;16.03;73.51;95323.44;5004891;28;20273;-79
2023/05/01 06:29:54;;;;;;;14.07;8.33;;;;;;;16.26;72.09;95317.47;5004525;28;20222;-81
2023/05/01 06:32:20;;;;;;;12.57;8.67;;;;;;;16.32;71.81;95321.84;5030451;28;20227;-79
2023/05/01 06:34:46;;;;;;;13.30;9.00;;;;;;;16.31;71.84;95320.22;5015182;28;20222;-79
2023/05/01 06:37:12;;;;;;;16.13;8.90;;;;;;;16.39;70.52;95319.09;5031402;28;20218;-80
2023/05/01 06:39:37;;;;;;;13.97;9.40;;;;;;;16.34;71.18;95322.41;4986520;28;20252;-78
2023/05/01 06:42:03;;;;;;;14.43;8.60;;;;;;;16.72;70.63;95322.06;4995771;28;20233;-75
2023/05/01 06:44:29;;;;;;;13.13;8.67;;;;;;;16.59;70.01;95317.81;5012819;28;20341;-75
2023/05/01 06:46:55;;;;;;;12.77;8.60;;;;;;;16.87;69.03;95319.00;4995072;28;20235;-75
2023/05/01 06:49:21;;;;;;;15.43;8.67;;;;;;;16.75;69.00;95327.72;5029798;28;20637;-76
2023/05/01 06:51:47;;;;;;;14.23;8.90;;;;;;;16.80;69.61;95324.41;5019220;28;20230;-76
2023/05/01 06:54:12;;;;;;;11.60;8.30;;;;;;;16.95;69.49;95322.13;5004809;28;20241;-76
2023/05/01 06:56:38;;;;;;;12.20;8.40;;;;;;;16.79;70.33;95325.41;5011603;28;20241;-74
2023/05/01 06:59:04;;;;;;;15.07;8.83;;;;;;;16.58;70.99;95315.38;5005758;28;20257;-76
2023/05/01 07:01:29;;;;;;;11.17;8.47;;;;;;;17.01;70.02;95317.72;5008286;28;20222;-75
2023/05/01 07:03:55;;;;;;;16.03;8.70;;;;;;;17.45;68.25;95330.41;5024576;28;20225;-76
2023/05/01 07:06:21;;;;;;;11.87;8.60;;;;;;;17.10;68.93;95327.75;5019291;28;20299;-75
2023/05/01 07:08:46;;;;;;;21.73;9.00;;;;;;;17.03;68.93;95329.69;5037890;28;20237;-78
2023/05/01 07:11:12;;;;;;;13.30;9.13;;;;;;;17.44;67.26;95332.22;4994661;28;20226;-76
2023/05/01 07:13:37;;;;;;;14.53;9.40;;;;;;;17.47;68.70;95326.50;5027743;28;20237;-75
2023/05/01 07:16:03;;;;;;;15.27;9.13;;;;;;;17.31;68.40;95327.19;5010951;28;20647;-77
2023/05/01 07:18:29;;;;;;;14.60;9.37;;;;;;;17.70;66.94;95333.59;5007511;28;20761;-77
2023/05/01 07:20:55;;;;;;;13.80;8.53;;;;;;;17.53;67.59;95343.28;5015328;28;20832;-76
2023/05/01 07:23:22;;;;;;;14.77;8.67;;;;;;;17.41;66.76;95334.56;5032633;28;20258;-77
2023/05/01 07:25:47;;;;;;;13.23;8.63;;;;;;;17.56;67.42;95334.09;5009802;28;20230;-78
2023/05/01 07:28:13;;;;;;;16.53;9.17;;;;;;;17.96;66.98;95337.59;4993635;28;20878;-77
2023/05/01 07:30:38;;;;;;;12.80;8.60;;;;;;;18.24;65.27;95342.91;5004801;28;20225;-75
2023/05/01 07:33:10;;;;;;;18.67;9.20;;;;;;;17.91;65.44;95337.50;4998470;28;20271;-75
2023/05/01 07:35:36;;;;;;;12.43;8.77;;;;;;;18.14;64.85;95337.41;5006819;28;20219;-75
2023/05/01 07:38:01;;;;;;;15.23;8.50;;;;;;;18.31;64.78;95337.47;5010837;28;20285;-75
2023/05/01 07:40:27;;;;;;;13.77;8.87;;;;;;;18.34;64.30;95337.00;5002674;28;20958;-76
2023/05/01 07:42:52;;;;;;;12.57;9.53;;;;;;;18.55;65.58;95331.84;5030073;28;20260;-76
2023/05/01 07:45:18;;;;;;;14.63;9.30;;;;;;;18.53;63.95;95325.97;5021931;28;20726;-75
2023/05/01 07:47:43;;;;;;;14.70;9.10;;;;;;;18.53;65.23;95330.50;5008559;28;20225;-77
2023/05/01 07:50:10;;;;;;;17.87;10.00;;;;;;;18.14;66.84;95332.13;5029458;28;20249;-75
2023/05/01 07:52:36;;;;;;;19.30;10.00;;;;;;;18.14;65.38;95326.81;5007571;28;20677;-75
2023/05/01 07:55:02;;;;;;;18.43;10.30;;;;;;;17.90;65.72;95330.56;5009560;28;20254;-76
2023/05/01 07:57:28;;;;;;;15.47;9.60;;;;;;;18.48;64.65;95333.84;5018829;28;20218;-76
2023/05/01 07:59:57;;;;;;;22.20;10.07;;;;;;;18.07;64.52;95336.75;5001845;28;20774;-74
2023/05/01 08:02:23;;;;;;;15.70;9.70;;;;;;;18.29;64.93;95334.25;5003927;28;20234;-75
2023/05/01 08:04:48;;;;;;;15.50;9.60;;;;;;;18.48;64.44;95330.41;4991230;28;20919;-77
2023/05/01 08:07:14;;;;;;;15.33;9.37;;;;;;;18.48;63.98;95333.03;5007537;28;20226;-77
2023/05/01 08:09:39;;;;;;;14.47;8.77;;;;;;;18.86;62.15;95341.13;5028570;28;20262;-78
2023/05/01 08:12:05;;;;;;;16.87;8.90;;;;;;;18.82;61.25;95334.69;5009761;28;20246;-76
2023/05/01 08:14:30;;;;;;;16.73;9.10;;;;;;;18.47;63.22;95337.53;5016869;28;20258;-78
2023/05/01 08:16:56;;;;;;;13.93;8.50;;;;;;;19.00;61.65;95338.97;5008495;28;20210;-74
2023/05/01 08:19:22;;;;;;;16.90;8.33;;;;;;;19.25;61.56;95323.44;5026850;28;20237;-77
2023/05/01 08:21:47;;;;;;;15.03;9.00;;;;;;;19.49;62.72;95332.81;5018591;28;20226;-78
2023/05/01 08:24:13;;;;;;;12.00;9.13;;;;;;;19.15;62.29;95328.59;5014707;28;20213;-78
2023/05/01 08:26:38;;;;;;;13.77;8.63;;;;;;;18.74;61.39;95333.25;5004197;28;20223;-79
2023/05/01 08:29:04;;;;;;;15.50;8.50;;;;;;;19.12;62.42;95329.88;5010980;28;20227;-77
2023/05/01 08:31:29;;;;;;;12.67;8.33;;;;;;;19.01;60.23;95324.66;5024369;28;20237;-76
2023/05/01 08:33:55;;;;;;;12.53;8.00;;;;;;;19.06;60.37;95322.09;5035562;28;20257;-78
2023/05/01 08:36:21;;;;;;;10.83;7.90;;;;;;;19.11;59.12;95319.50;5014109;28;20234;-80
2023/05/01 08:38:46;;;;;;;10.50;6.67;;;;;;;19.70;57.92;95318.00;5041570;28;20284;-77
2023/05/01 08:41:16;;;;;;;10.30;7.40;;;;;;;19.75;59.50;95324.16;5012401;28;20229;-80
2023/05/01 08:43:42;;;;;;;15.47;8.77;;;;;;;19.42;59.91;95330.34;5016933;28;20389;-78
2023/05/01 08:46:07;;;;;;;12.93;6.97;;;;;;;19.82;57.23;95321.34;5007686;28;20219;-81
2023/05/01 08:48:33;;;;;;;9.63;6.10;;;;;;;19.67;55.69;95323.78;5043800;28;20226;-84
2023/05/01 08:50:58;;;;;;;9.50;5.80;;;;;;;20.12;55.47;95321.69;5003967;28;20333;-80
2023/05/01 08:53:24;;;;;;;8.73;5.33;;;;;;;20.10;54.10;95321.13;5024115;28;20230;-82
2023/05/01 08:55:51;;;;;;;6.80;4.80;;;;;;;19.96;53.63;95317.25;5025059;28;20238;-83
2023/05/01 08:58:16;;;;;;;8.93;4.87;;;;;;;19.88;53.29;95323.00;5013420;28;20249;-82
2023/05/01 09:00:42;;;;;;;7.57;4.30;;;;;;;19.86;54.27;95317.13;5033788;28;20256;-84
2023/05/01 09:03:09;;;;;;;7.90;4.90;;;;;;;20.19;52.78;95319.63;5028381;28;20315;-81
2023/05/01 09:05:35;;;;;;;6.23;4.30;;;;;;;20.43;55.34;95313.03;5040234;28;20378;-83
2023/05/01 09:08:00;;;;;;;7.60;4.30;;;;;;;20.56;52.91;95314.47;5015643;28;20238;-82
2023/05/01 09:10:26;;;;;;;4.70;3.10;;;;;;;20.74;51.91;95316.75;5048525;28;20262;-81
2023/05/01 09:12:58;;;;;;;4.07;3.13;;;;;;;20.28;49.79;95315.50;4999849;28;20230;-82
2023/05/01 09:15:27;;;;;;;4.80;3.50;;;;;;;20.10;50.65;95307.84;5016895;28;20233;-82
2023/05/01 09:17:53;;;;;;;7.97;3.90;;;;;;;20.23;51.62;95307.47;5029394;28;20226;-81
2023/05/01 09:20:19;;;;;;;4.97;3.70;;;;;;;20.27;50.76;95316.56;5045943;28;20283;-81
2023/05/01 09:22:44;;;;;;;6.77;3.60;;;;;;;20.13;52.21;95318.78;5017056;28;20265;-84
2023/05/01 09:25:10;;;;;;;4.23;3.30;;;;;;;20.04;51.79;95320.25;5039519;28;20261;-84
2023/05/01 09:27:36;;;;;;;7.90;3.60;;;;;;;20.96;53.27;95322.81;5025242;28;20284;-83
2023/05/01 09:30:02;;;;;;;5.37;3.73;;;;;;;20.98;53.52;95320.69;5046721;28;20226;-83
2023/05/01 09:32:28;;;;;;;4.60;3.60;;;;;;;20.53;52.60;95320.28;5036738;28;20241;-82
2023/05/01 09:34:54;;;;;;;7.13;3.70;;;;;;;20.80;52.40;95316.56;5042648;28;20233;-82
2023/05/01 09:37:27;;;;;;;7.63;3.50;;;;;;;20.99;49.51;95317.00;5002829;28;20237;-84
2023/05/01 09:40:07;;;;;;;3.93;3.20;;;;;;;20.79;49.37;95312.31;5028646;28;20250;-80
2023/05/01 09:42:33;;;;;;;6.23;3.50;;;;;;;21.09;49.81;95317.09;5021673;28;20297;-81
2023/05/01 09:45:02;;;;;;;7.23;3.27;;;;;;;20.75;49.52;95319.16;5030895;28;20241;-83
2023/05/01 09:47:28;;;;;;;5.07;3.13;;;;;;;21.25;48.88;95312.69;5012489;28;20317;-84
2023/05/01 09:49:54;;;;;;;4.10;3.37;;;;;;;21.07;47.13;95303.22;5029157;28;20253;-83
2023/05/01 09:52:20;;;;;;;4.73;3.40;;;;;;;21.10;47.02;95305.38;5022000;28;20286;-84
2023/05/01 09:54:46;;;;;;;7.47;3.97;;;;;;;20.87;48.37;95310.22;5033327;28;20231;-83
2023/05/01 09:57:12;;;;;;;4.93;3.63;;;;;;;21.07;49.52;95311.22;5018941;28;20241;-84
2023/05/01 09:59:38;;;;;;;4.90;3.60;;;;;;;21.17;48.39;95307.81;5005997;28;20244;-84
2023/05/01 10:02:03;;;;;;;6.17;3.53;;;;;;;21.89;47.96;95310.69;5005013;28;20527;-84
2023/05/01 10:04:38;;;;;;;4.30;3.53;;;;;;;21.58;45.74;95306.22;5008892;28;20298;-84
2023/05/01 10:07:12;;;;;;;6.80;3.27;;;;;;;21.16;46.06;95299.03;5026443;28;20241;-81
2023/05/01 10:09:38;;;;;;;6.53;3.50;;;;;;;21.31;47.97;95298.34;5041516;28;20226;-84
2023/05/01 10:12:04;;;;;;;5.70;3.83;;;;;;;21.49;48.28;95305.91;5017823;28;20233;-84
2023/05/01 10:14:32;;;;;;;9.00;4.93;;;;;;;21.86;46.72;95297.84;5007439;28;20223;-84
2023/05/01 10:16:58;;;;;;;6.23;3.80;;;;;;;21.90;46.78;95297.06;5011760;28;20287;-83
2023/05/01 10:19:23;;;;;;;6.63;3.80;;;;;;;22.02;48.54;95286.19;5014325;28;20231;-83
2023/05/01 10:21:49;;;;;;;7.95;4.07;;;;;;;21.95;47.92;95294.44;5014449;28;20232;-84
2023/05/01 10:24:15;;;;;;;5.70;4.10;;;;;;;21.75;48.94;95290.84;5046621;28;20253;-81
2023/05/01 10:26:41;;;;;;;4.87;4.00;;;;;;;21.50;48.65;95288.84;5023597;28;20227;-84
2023/05/01 10:29:07;;;;;;;6.43;3.90;;;;;;;21.77;46.16;95288.72;5021109;28;20229;-80
2023/05/01 10:31:33;;;;;;;6.60;3.40;;;;;;;21.91;47.36;95290.69;5012485;28;20249;-82
2023/05/01 10:34:00;;;;;;;4.82;3.72;;;;;;;21.39;47.39;95293.34;5028134;28;20288;-83
2023/05/01 10:36:38;;;;;;;6.20;3.23;;;;;;;21.31;46.58;95285.81;5017623;28;20227;-83
2023/05/01 10:39:03;;;;;;;6.47;3.30;;;;;;;21.13;47.44;95278.25;5043583;28;20314;-83
2023/05/01 10:41:56;;;;;;;4.90;3.03;;;;;;;20.46;48.35;95291.25;5040952;28;20216;-83
2023/05/01 10:44:23;;;;;;;3.37;2.80;;;;;;;20.35;48.85;95281.53;5032653;28;20232;-82
2023/05/01 10:46:48;;;;;;;3.10;2.40;;;;;;;21.01;46.56;95277.63;5015880;28;20226;-84
2023/05/01 10:49:14;;;;;;;4.57;2.87;;;;;;;21.45;44.86;95286.97;5009281;28;20618;-80
2023/05/01 10:51:57;;;;;;;5.03;2.80;;;;;;;21.62;47.02;95284.13;5017469;28;20226;-81
2023/05/01 10:54:31;;;;;;;4.03;2.67;;;;;;;21.63;44.69;95277.75;5039564;28;20232;-82
2023/05/01 10:57:01;;;;;;;3.40;2.60;;;;;;;21.59;45.68;95279.31;5044226;28;20688;-82
2023/05/01 10:59:47;;;;;;;6.07;2.60;;;;;;;20.56;48.10;95290.53;5032892;28;20218;-79
2023/05/01 11:02:22;;;;;;;3.20;2.33;;;;;;;20.38;47.29;95277.59;5031940;28;20229;-81
2023/05/01 11:04:49;;;;;;;5.93;2.70;;;;;;;20.20;48.73;95283.22;5026686;28;20257;-82
2023/05/01 11:07:17;;;;;;;4.67;2.80;;;;;;;20.00;49.16;95275.84;5044033;28;20222;-83
2023/05/01 11:09:53;;;;;;;4.27;2.87;;;;;;;19.94;48.99;95280.28;5015141;28;20234;-82
2023/05/01 11:12:44;;;;;;;11.10;3.20;;;;;;;20.11;49.46;95278.34;5004272;28;20225;-85
2023/05/01 11:15:09;;;;;;;3.80;2.70;;;;;;;19.93;47.82;95281.34;5042802;28;20249;-81
2023/05/01 11:17:40;;;;;;;4.87;2.60;;;;;;;20.60;46.50;95281.81;5020044;28;20616;-81
2023/05/01 11:20:07;;;;;;;3.10;2.57;;;;;;;21.21;45.41;95274.28;5040871;28;20234;-84
2023/05/01 11:22:33;;;;;;;4.67;2.90;;;;;;;21.43;44.99;95280.28;5010113;28;20428;-84
2023/05/01 11:24:59;;;;;;;3.73;2.60;;;;;;;21.48;44.63;95272.34;5020398;28;20210;-84
2023/05/01 11:27:25;;;;;;;5.37;2.67;;;;;;;21.30;43.61;95270.88;5005297;28;20234;-80